Time;durP1;ratioP1;P1;durP2;ratioP2;P2;SDS_P1;SDS_P2;PMS_P1;PMS_P2;Temp;Humidity;BMP_temperature;BMP_pressure;BME280_temperature;BME280_humidity;BME280_pressure;Samples;Min_cycle;Max_cycle;Signal;HPM_P1;HPM_P2
2021/09/05 00:05:01;;;;;;;35.13;18.60;;;16.60;99.90;;;;;;6731853;88;20212;-74
2021/09/05 00:15:03;;;;;;;39.80;19.20;;;16.40;99.90;;;;;;6732320;88;20935;-73
2021/09/05 00:25:04;;;;;;;35.88;18.12;;;16.50;99.90;;;;;;6732581;88;20184;-74
2021/09/05 00:35:06;;;;;;;40.80;19.60;;;16.20;99.90;;;;;;6731703;88;20259;-74
2021/09/05 00:45:07;;;;;;;39.22;18.05;;;16.30;99.90;;;;;;6721156;88;20196;-73
2021/09/05 00:55:08;;;;;;;45.10;19.20;;;16.20;99.90;;;;;;6736058;88;20193;-74
2021/09/05 01:05:09;;;;;;;36.00;18.75;;;16.10;99.90;;;;;;6732309;88;20195;-74
2021/09/05 01:15:10;;;;;;;39.67;20.40;;;16.20;99.90;;;;;;6732210;88;20208;-74
2021/09/05 01:25:11;;;;;;;39.33;19.65;;;15.90;99.90;;;;;;6733332;88;20215;-74
2021/09/05 01:35:11;;;;;;;39.97;18.83;;;15.70;99.90;;;;;;6732436;88;20209;-75
2021/09/05 01:45:12;;;;;;;37.50;17.87;;;15.60;99.90;;;;;;6731064;88;20538;-74
2021/09/05 01:55:13;;;;;;;39.85;18.98;;;15.70;99.90;;;;;;6730896;88;20709;-74
2021/09/05 02:05:14;;;;;;;36.30;18.73;;;15.50;99.90;;;;;;6730957;88;20184;-74
2021/09/05 02:15:14;;;;;;;56.63;26.05;;;15.40;99.90;;;;;;6731586;88;20670;-74
2021/09/05 02:25:15;;;;;;;47.72;23.60;;;15.40;99.90;;;;;;6732177;88;20196;-74
2021/09/05 02:35:16;;;;;;;47.08;21.35;;;15.40;99.90;;;;;;6731885;88;20339;-74
2021/09/05 02:45:16;;;;;;;43.95;21.83;;;15.30;99.90;;;;;;6730270;88;20368;-75
2021/09/05 02:55:17;;;;;;;39.70;20.10;;;15.20;99.90;;;;;;6730360;88;20247;-74
2021/09/05 03:05:18;;;;;;;39.42;19.80;;;15.00;99.90;;;;;;6718849;88;20650;-74
2021/09/05 03:15:18;;;;;;;38.08;20.05;;;15.00;99.90;;;;;;6717929;88;20259;-73
2021/09/05 03:25:19;;;;;;;40.70;20.77;;;14.90;99.90;;;;;;6730390;88;20597;-73
2021/09/05 03:35:19;;;;;;;36.72;18.37;;;15.00;99.90;;;;;;6730274;88;20243;-74
2021/09/05 03:45:20;;;;;;;36.75;18.87;;;15.00;99.90;;;;;;6730041;88;20609;-75
2021/09/05 03:55:20;;;;;;;40.35;19.30;;;14.90;99.90;;;;;;6729985;88;20256;-74
2021/09/05 04:05:21;;;;;;;35.72;19.02;;;14.80;99.90;;;;;;6729602;88;20739;-74
2021/09/05 04:15:21;;;;;;;41.63;18.15;;;15.00;99.90;;;;;;6732542;88;20694;-73
2021/09/05 04:25:22;;;;;;;40.40;19.33;;;14.70;99.90;;;;;;6729550;88;20245;-74
2021/09/05 04:35:23;;;;;;;39.60;18.80;;;14.60;99.90;;;;;;6729935;88;20184;-73
2021/09/05 04:45:23;;;;;;;43.20;18.63;;;14.50;99.90;;;;;;6731952;88;20550;-73
2021/09/05 04:55:24;;;;;;;36.90;17.83;;;14.30;99.90;;;;;;6731776;88;20497;-74
2021/09/05 05:05:24;;;;;;;45.35;18.33;;;14.00;99.90;;;;;;6731883;88;20184;-74
2021/09/05 05:15:25;;;;;;;42.60;18.23;;;14.10;99.90;;;;;;6732035;88;20233;-73
2021/09/05 05:25:26;;;;;;;53.97;17.73;;;14.20;99.90;;;;;;6732535;88;20249;-73
2021/09/05 05:35:26;;;;;;;40.00;16.73;;;14.30;99.90;;;;;;6731906;88;20241;-75
2021/09/05 05:45:27;;;;;;;38.33;17.52;;;14.40;99.90;;;;;;6731503;88;20749;-74
2021/09/05 05:55:28;;;;;;;70.22;19.02;;;14.50;99.90;;;;;;6734778;88;20263;-73
2021/09/05 06:05:28;;;;;;;46.43;17.37;;;14.50;99.90;;;;;;6731011;88;20200;-74
2021/09/05 06:15:29;;;;;;;56.05;20.00;;;14.60;99.90;;;;;;6731238;88;20892;-73
2021/09/05 06:25:30;;;;;;;42.40;20.17;;;14.80;99.90;;;;;;6730827;88;20651;-73
2021/09/05 06:35:30;;;;;;;40.72;19.85;;;15.00;99.90;;;;;;6730713;88;20201;-76
2021/09/05 06:45:31;;;;;;;31.98;17.55;;;15.50;99.90;;;;;;6730997;88;20682;-74
2021/09/05 06:55:31;;;;;;;34.17;17.83;;;15.90;99.90;;;;;;6734057;88;20214;-74
2021/09/05 07:05:32;;;;;;;26.35;14.90;;;16.40;99.90;;;;;;6731093;88;20245;-76
2021/09/05 07:15:34;;;;;;;24.02;13.40;;;17.20;99.90;;;;;;6733929;88;20218;-73
2021/09/05 07:25:35;;;;;;;17.87;11.85;;;18.00;99.90;;;;;;6729330;88;20313;-74
2021/09/05 07:35:35;;;;;;;19.48;11.15;;;18.70;99.90;;;;;;6712632;88;20299;-74
2021/09/05 07:45:36;;;;;;;15.77;10.13;;;19.30;99.90;;;;;;6712380;88;20261;-73
2021/09/05 07:55:36;;;;;;;14.55;9.70;;;19.70;99.90;;;;;;6712346;88;20227;-74
2021/09/05 08:05:37;;;;;;;13.20;9.07;;;20.50;99.90;;;;;;6712898;88;20242;-74
2021/09/05 08:15:37;;;;;;;13.65;8.73;;;21.30;99.90;;;;;;6715501;88;20252;-75
2021/09/05 08:25:38;;;;;;;14.38;9.07;;;21.30;99.90;;;;;;6715677;88;20241;-74
2021/09/05 08:35:39;;;;;;;14.02;8.88;;;22.00;99.90;;;;;;6715022;88;20319;-74
2021/09/05 08:45:40;;;;;;;11.82;8.07;;;22.60;99.90;;;;;;6714706;88;20248;-73
2021/09/05 08:55:41;;;;;;;12.05;8.32;;;23.80;99.90;;;;;;6714579;88;20196;-74
2021/09/05 09:05:42;;;;;;;11.12;7.35;;;24.90;99.90;;;;;;6714552;88;20227;-75
2021/09/05 09:15:42;;;;;;;10.88;7.50;;;24.80;99.90;;;;;;6714503;88;20230;-75
2021/09/05 09:25:56;;;;;;;11.60;7.50;;;25.20;99.90;;;;;;6714092;88;20212;-75
2021/09/05 09:35:59;;;;;;;14.23;8.50;;;26.70;99.90;;;;;;6714030;88;20213;-75
2021/09/05 09:46:14;;;;;;;12.60;8.10;;;27.10;99.90;;;;;;6714123;88;20197;-75
2021/09/05 09:56:16;;;;;;;9.25;7.15;;;27.60;99.90;;;;;;6714437;88;20292;-75
2021/09/05 10:06:17;;;;;;;10.05;7.22;;;29.00;99.90;;;;;;6714292;88;21210;-75
2021/09/05 10:16:18;;;;;;;9.35;7.15;;;30.10;98.30;;;;;;6713893;88;20226;-75
2021/09/05 10:26:19;;;;;;;10.48;7.28;;;30.90;96.70;;;;;;6715454;88;20201;-75
2021/09/05 10:36:23;;;;;;;10.70;7.45;;;31.30;94.50;;;;;;6730546;88;20333;-75
2021/09/05 10:46:36;;;;;;;9.55;6.93;;;31.00;95.20;;;;;;6730423;88;20221;-75
2021/09/05 10:56:44;;;;;;;10.85;6.80;;;31.70;94.20;;;;;;6730420;88;20310;-76
2021/09/05 11:07:01;;;;;;;9.75;6.53;;;32.00;92.70;;;;;;6730119;88;20263;-75
2021/09/05 11:17:05;;;;;;;10.63;6.10;;;32.80;91.40;;;;;;6730497;88;20245;-75
2021/09/05 11:27:08;;;;;;;9.18;6.32;;;33.70;88.50;;;;;;6727766;88;20195;-75
2021/09/05 11:37:09;;;;;;;8.43;6.35;;;33.00;84.90;;;;;;6713460;88;20389;-75
2021/09/05 11:47:12;;;;;;;8.07;5.70;;;33.00;88.10;;;;;;6712954;88;20192;-76
2021/09/05 11:57:12;;;;;;;7.97;5.68;;;33.70;84.10;;;;;;6713035;88;20196;-75
2021/09/05 12:07:13;;;;;;;10.77;5.70;;;34.60;80.40;;;;;;6712912;88;20223;-75
2021/09/05 12:17:22;;;;;;;6.10;5.10;;;34.70;78.20;;;;;;6712472;88;20231;-76
2021/09/05 12:27:23;;;;;;;6.90;5.50;;;34.60;74.10;;;;;;6712775;88;20468;-76
2021/09/05 12:37:25;;;;;;;8.27;5.70;;;34.20;79.60;;;;;;6713600;88;20217;-75
2021/09/05 12:47:29;;;;;;;8.90;5.68;;;35.00;76.50;;;;;;6714298;88;20540;-76
2021/09/05 12:57:30;;;;;;;6.30;5.18;;;35.80;73.50;;;;;;6715426;88;20358;-76
2021/09/05 13:07:34;;;;;;;7.53;5.28;;;35.70;72.10;;;;;;6717226;88;20203;-76
2021/09/05 13:17:36;;;;;;;6.28;5.00;;;35.90;70.90;;;;;;6716184;88;20239;-76
2021/09/05 13:27:36;;;;;;;7.05;4.90;;;35.10;68.40;;;;;;6719264;88;20185;-76
2021/09/05 13:37:39;;;;;;;6.90;5.13;;;34.90;67.20;;;;;;6733108;88;20790;-76
2021/09/05 13:47:40;;;;;;;7.60;5.10;;;35.60;67.50;;;;;;6727604;88;20638;-75
2021/09/05 13:57:40;;;;;;;6.22;4.60;;;35.50;66.90;;;;;;6715738;88;20188;-76
2021/09/05 14:07:41;;;;;;;6.90;4.80;;;35.50;66.50;;;;;;6715345;88;20200;-76
2021/09/05 14:17:41;;;;;;;8.75;5.28;;;35.10;66.10;;;;;;6716215;88;20231;-76
2021/09/05 14:27:51;;;;;;;7.37;5.03;;;35.10;65.70;;;;;;6719449;88;20636;-76
2021/09/05 14:58:11;;;;;;;6.15;4.90;;;32.20;68.60;;;;;;6714462;88;20320;-76
2021/09/05 15:18:34;;;;;;;6.53;5.07;;;31.00;69.00;;;;;;6714920;88;20668;-76
2021/09/05 15:28:43;;;;;;;6.82;5.00;;;31.10;68.70;;;;;;6718681;88;20210;-76
2021/09/05 15:39:00;;;;;;;6.12;4.90;;;31.50;68.50;;;;;;6730385;88;20214;-76
2021/09/05 15:49:17;;;;;;;8.35;4.45;;;31.50;67.80;;;;;;6723275;88;20174;-76
2021/09/05 16:19:43;;;;;;;6.12;4.35;;;31.00;67.00;;;;;;6712962;88;20193;-76
2021/09/05 16:50:13;;;;;;;5.90;4.30;;;29.80;67.60;;;;;;6722646;88;20213;-76
2021/09/05 17:00:14;;;;;;;9.97;4.60;;;29.20;68.10;;;;;;6715695;88;20356;-76
2021/09/05 17:10:15;;;;;;;7.27;4.77;;;28.50;69.30;;;;;;6715282;88;20751;-75
2021/09/05 17:20:16;;;;;;;13.53;8.03;;;28.10;70.70;;;;;;6714918;88;20353;-76
2021/09/05 17:30:16;;;;;;;8.83;5.63;;;27.40;71.60;;;;;;6724483;88;20258;-75
2021/09/05 17:40:17;;;;;;;9.43;6.10;;;26.80;77.10;;;;;;6733584;88;20565;-75
2021/09/05 17:50:18;;;;;;;9.13;6.45;;;26.20;78.20;;;;;;6722000;88;20677;-75
2021/09/05 18:00:18;;;;;;;16.60;11.98;;;25.30;81.90;;;;;;6714537;88;20241;-76
2021/09/05 18:10:19;;;;;;;16.03;10.00;;;24.80;85.60;;;;;;6713352;88;20215;-75
2021/09/05 18:20:19;;;;;;;10.53;7.77;;;24.20;87.20;;;;;;6713178;88;20215;-75
2021/09/05 18:30:23;;;;;;;15.10;10.05;;;23.70;88.50;;;;;;6721959;88;20208;-75
2021/09/05 18:50:28;;;;;;;13.23;9.13;;;22.80;91.60;;;;;;6696914;88;20227;-79
2021/09/05 19:00:28;;;;;;;13.32;8.98;;;22.50;94.60;;;;;;6688844;88;20195;-79
2021/09/05 19:10:29;;;;;;;9.48;6.28;;;22.10;96.70;;;;;;6686381;88;20193;-79
2021/09/05 19:20:29;;;;;;;10.90;6.67;;;21.70;98.20;;;;;;6685177;88;20175;-77
2021/09/05 19:30:30;;;;;;;11.12;7.22;;;21.30;99.80;;;;;;6677415;88;20206;-78
2021/09/05 19:40:30;;;;;;;10.77;7.47;;;21.20;99.90;;;;;;6689470;88;20190;-81
2021/09/05 19:50:31;;;;;;;11.32;6.87;;;20.90;99.90;;;;;;6687758;89;20670;-79
2021/09/05 20:00:32;;;;;;;13.73;8.35;;;20.70;99.90;;;;;;6683660;88;20258;-80
2021/09/05 20:10:32;;;;;;;11.00;7.07;;;20.50;99.90;;;;;;6686001;88;20226;-79
2021/09/05 20:20:33;;;;;;;12.60;7.95;;;20.40;99.90;;;;;;6685428;88;20183;-78
2021/09/05 20:30:33;;;;;;;14.05;7.85;;;20.40;99.90;;;;;;6688010;88;21104;-80
2021/09/05 20:40:34;;;;;;;10.35;6.87;;;20.00;99.90;;;;;;6688938;88;20306;-80
2021/09/05 20:50:36;;;;;;;13.57;8.00;;;19.70;99.90;;;;;;6690958;88;20234;-80
2021/09/05 21:00:36;;;;;;;12.15;7.47;;;19.60;99.90;;;;;;6692372;88;20533;-81
2021/09/05 21:10:43;;;;;;;13.40;7.97;;;19.70;99.90;;;;;;6694183;88;20713;-82
2021/09/05 21:20:44;;;;;;;11.80;7.60;;;19.40;99.90;;;;;;6698175;88;20363;-80
2021/09/05 21:30:44;;;;;;;12.23;7.60;;;19.10;99.90;;;;;;6690866;88;20706;-79
2021/09/05 21:40:45;;;;;;;12.32;7.87;;;19.10;99.90;;;;;;6687471;88;20745;-78
2021/09/05 21:50:46;;;;;;;14.82;8.20;;;18.80;99.90;;;;;;6684423;88;20227;-78
2021/09/05 22:00:46;;;;;;;11.80;7.80;;;18.60;99.90;;;;;;6688918;88;20213;-78
2021/09/05 22:10:48;;;;;;;13.85;8.05;;;18.70;99.90;;;;;;6688113;88;20247;-79
2021/09/05 22:20:49;;;;;;;11.40;7.60;;;18.70;99.90;;;;;;6678131;89;20327;-78
2021/09/05 22:30:49;;;;;;;12.98;8.00;;;18.30;99.90;;;;;;6685540;88;20310;-78
2021/09/05 22:40:51;;;;;;;12.98;7.87;;;18.10;99.90;;;;;;6684947;88;20758;-78
2021/09/05 22:50:51;;;;;;;13.50;7.95;;;17.80;99.90;;;;;;6683255;88;20186;-78
2021/09/05 23:00:52;;;;;;;11.63;7.43;;;17.60;99.90;;;;;;6686694;88;20203;-78
2021/09/05 23:10:52;;;;;;;14.13;7.95;;;17.50;99.90;;;;;;6686717;88;20288;-78
2021/09/05 23:20:53;;;;;;;11.30;7.97;;;17.30;99.90;;;;;;6686924;88;20218;-78
2021/09/05 23:30:54;;;;;;;11.40;7.57;;;17.20;99.90;;;;;;6686921;88;20235;-78
2021/09/05 23:40:54;;;;;;;12.32;8.25;;;17.10;99.90;;;;;;6685236;88;20328;-78
2021/09/05 23:50:55;;;;;;;12.00;8.03;;;16.80;99.90;;;;;;6688210;88;20372;-78
